Trindle Spring, Pennsylvania
Current Conditions -  °F | °C
As of 4:40 AM on Thursday 23 Oct 2014 (Local Time) from KCXY Reporting Station
Overcast Overcast  
Wind Chill: 54°   Ceiling: 2900
Heat Index: 54°   Visibility: 10mi
Dew Point: 42°   Wind: 13mph
Humidity: 64%   Direction: 340°NNW
Pressure: 29.89"   Gusts: 22mph
Location:  40.2485°N, 77.0142°W
Report Text: KCXY 230840Z AUTO 34011G19KT 10SM OVC029 12/06 A2989 RMK AO2 T01220056
Loading
Personal Weather Stations






























Interactive Weather Map
Tropical Storm Tracking
New forecast layout! Learn more

10-Day Weather Forecast

Advertisements
Track Severe Weather on mobile